Terminal Aerodrome Forecast
Issued by NWS Corpus Christi, TX

Home | Current Version | Previous Version | Text Only | Print | Product List | Glossary On
Versions: 1 2 3 4 5 6 7 8 9 10 11 12 13 14 15
955
FTUS44 KCRP 142331
TAFCRP
TAF
KCRP 142331Z 1500/1524 16023G32KT P6SM SCT040 BKN250
     FM150100 15015KT P6SM FEW015 SCT250
     FM150800 16010KT 4SM BR BKN015
     FM151100 16006KT 1/2SM FG OVC003
     FM151515 17008KT 2SM BR SCT015
     FM151615 19008KT P6SM SCT025
     FM152000 36009G19KT P6SM SKC=

USA.gov is the U.S. government's official web portal to all federal, state and local government web resources and services.